sensor_id;sensor_type;location;lat;lon;timestamp;temperature;humidity
53645;DHT22;39547;45.554;12.068;2024-01-15T00:03:22;3.60;92.00
53645;DHT22;39547;45.554;12.068;2024-01-15T00:09:33;3.60;92.00
53645;DHT22;39547;45.554;12.068;2024-01-15T00:15:36;3.60;91.70
53645;DHT22;39547;45.554;12.068;2024-01-15T00:21:40;3.60;91.80
53645;DHT22;39547;45.554;12.068;2024-01-15T00:27:43;3.60;91.80
53645;DHT22;39547;45.554;12.068;2024-01-15T00:33:45;3.70;91.80
53645;DHT22;39547;45.554;12.068;2024-01-15T00:40:00;3.70;91.90
53645;DHT22;39547;45.554;12.068;2024-01-15T00:46:03;3.70;91.80
53645;DHT22;39547;45.554;12.068;2024-01-15T00:52:04;3.70;91.80
53645;DHT22;39547;45.554;12.068;2024-01-15T00:58:09;3.70;91.90
53645;DHT22;39547;45.554;12.068;2024-01-15T01:04:10;3.70;91.80
53645;DHT22;39547;45.554;12.068;2024-01-15T01:10:13;3.70;91.80
53645;DHT22;39547;45.554;12.068;2024-01-15T01:16:16;3.70;91.80
53645;DHT22;39547;45.554;12.068;2024-01-15T01:22:18;3.70;91.90
53645;DHT22;39547;45.554;12.068;2024-01-15T01:28:19;3.70;91.90
53645;DHT22;39547;45.554;12.068;2024-01-15T01:34:21;3.70;91.80
53645;DHT22;39547;45.554;12.068;2024-01-15T01:40:24;3.70;92.00
53645;DHT22;39547;45.554;12.068;2024-01-15T01:46:27;3.70;92.10
53645;DHT22;39547;45.554;12.068;2024-01-15T01:52:30;3.70;92.10
53645;DHT22;39547;45.554;12.068;2024-01-15T01:58:33;3.70;92.10
53645;DHT22;39547;45.554;12.068;2024-01-15T02:04:39;3.70;92.10
53645;DHT22;39547;45.554;12.068;2024-01-15T02:10:42;3.70;92.00
53645;DHT22;39547;45.554;12.068;2024-01-15T02:16:44;3.70;92.10
53645;DHT22;39547;45.554;12.068;2024-01-15T02:22:47;3.70;92.00
53645;DHT22;39547;45.554;12.068;2024-01-15T02:28:51;3.70;92.00
53645;DHT22;39547;45.554;12.068;2024-01-15T02:34:52;3.70;91.50
53645;DHT22;39547;45.554;12.068;2024-01-15T02:40:54;3.60;91.80
53645;DHT22;39547;45.554;12.068;2024-01-15T02:46:56;3.60;92.00
53645;DHT22;39547;45.554;12.068;2024-01-15T02:52:58;3.50;91.90
53645;DHT22;39547;45.554;12.068;2024-01-15T02:58:59;3.50;92.10
53645;DHT22;39547;45.554;12.068;2024-01-15T03:05:03;3.50;92.20
53645;DHT22;39547;45.554;12.068;2024-01-15T03:11:04;3.50;92.20
53645;DHT22;39547;45.554;12.068;2024-01-15T03:17:06;3.40;92.10
53645;DHT22;39547;45.554;12.068;2024-01-15T03:23:11;3.40;92.00
53645;DHT22;39547;45.554;12.068;2024-01-15T03:29:13;3.40;92.20
53645;DHT22;39547;45.554;12.068;2024-01-15T03:35:16;3.40;92.20
53645;DHT22;39547;45.554;12.068;2024-01-15T03:41:19;3.40;92.10
53645;DHT22;39547;45.554;12.068;2024-01-15T03:47:21;3.20;91.70
53645;DHT22;39547;45.554;12.068;2024-01-15T03:53:23;3.00;91.60
53645;DHT22;39547;45.554;12.068;2024-01-15T03:59:26;2.90;91.70
53645;DHT22;39547;45.554;12.068;2024-01-15T04:05:28;2.70;91.70
53645;DHT22;39547;45.554;12.068;2024-01-15T04:11:30;2.60;91.80
53645;DHT22;39547;45.554;12.068;2024-01-15T04:17:31;2.50;91.90
53645;DHT22;39547;45.554;12.068;2024-01-15T04:23:33;2.50;92.00
53645;DHT22;39547;45.554;12.068;2024-01-15T04:29:38;2.50;92.10
53645;DHT22;39547;45.554;12.068;2024-01-15T04:35:40;2.60;92.30
53645;DHT22;39547;45.554;12.068;2024-01-15T04:41:45;2.60;92.30
53645;DHT22;39547;45.554;12.068;2024-01-15T04:47:46;2.70;92.20
53645;DHT22;39547;45.554;12.068;2024-01-15T04:53:48;2.60;92.00
53645;DHT22;39547;45.554;12.068;2024-01-15T04:59:49;2.40;91.90
53645;DHT22;39547;45.554;12.068;2024-01-15T05:05:51;2.40;92.00
53645;DHT22;39547;45.554;12.068;2024-01-15T05:11:53;2.30;92.00
53645;DHT22;39547;45.554;12.068;2024-01-15T05:17:54;2.20;91.90
53645;DHT22;39547;45.554;12.068;2024-01-15T05:23:55;2.20;91.90
53645;DHT22;39547;45.554;12.068;2024-01-15T05:29:57;2.10;91.80
53645;DHT22;39547;45.554;12.068;2024-01-15T05:35:58;2.10;91.80
53645;DHT22;39547;45.554;12.068;2024-01-15T05:42:00;2.00;91.80
53645;DHT22;39547;45.554;12.068;2024-01-15T05:48:01;2.00;91.90
53645;DHT22;39547;45.554;12.068;2024-01-15T05:54:04;1.90;92.00
53645;DHT22;39547;45.554;12.068;2024-01-15T06:00:06;1.90;92.00
53645;DHT22;39547;45.554;12.068;2024-01-15T06:06:08;1.90;92.00
53645;DHT22;39547;45.554;12.068;2024-01-15T06:12:10;1.90;92.00
53645;DHT22;39547;45.554;12.068;2024-01-15T06:18:12;1.80;92.00
53645;DHT22;39547;45.554;12.068;2024-01-15T06:24:14;1.80;91.90
53645;DHT22;39547;45.554;12.068;2024-01-15T06:30:17;1.80;91.90
53645;DHT22;39547;45.554;12.068;2024-01-15T06:36:19;1.70;91.90
53645;DHT22;39547;45.554;12.068;2024-01-15T06:42:23;1.80;92.10
53645;DHT22;39547;45.554;12.068;2024-01-15T06:48:24;1.80;92.00
53645;DHT22;39547;45.554;12.068;2024-01-15T06:54:35;1.80;91.90
53645;DHT22;39547;45.554;12.068;2024-01-15T07:00:41;1.90;92.30
53645;DHT22;39547;45.554;12.068;2024-01-15T07:06:43;2.00;92.50
53645;DHT22;39547;45.554;12.068;2024-01-15T07:12:47;2.10;92.30
53645;DHT22;39547;45.554;12.068;2024-01-15T07:18:49;2.20;92.50
53645;DHT22;39547;45.554;12.068;2024-01-15T07:24:50;2.30;92.70
53645;DHT22;39547;45.554;12.068;2024-01-15T07:30:53;2.40;92.80
53645;DHT22;39547;45.554;12.068;2024-01-15T07:36:57;2.60;92.30
53645;DHT22;39547;45.554;12.068;2024-01-15T07:42:59;2.70;92.70
53645;DHT22;39547;45.554;12.068;2024-01-15T07:49:00;2.80;92.20
53645;DHT22;39547;45.554;12.068;2024-01-15T07:55:02;3.00;92.60
53645;DHT22;39547;45.554;12.068;2024-01-15T08:01:07;3.10;92.50
53645;DHT22;39547;45.554;12.068;2024-01-15T08:07:08;3.20;92.70
53645;DHT22;39547;45.554;12.068;2024-01-15T08:13:11;3.30;92.70
53645;DHT22;39547;45.554;12.068;2024-01-15T08:19:13;3.40;92.60
53645;DHT22;39547;45.554;12.068;2024-01-15T08:25:15;3.30;91.20
53645;DHT22;39547;45.554;12.068;2024-01-15T08:31:17;3.30;92.00
53645;DHT22;39547;45.554;12.068;2024-01-15T08:37:20;3.30;91.80
53645;DHT22;39547;45.554;12.068;2024-01-15T08:43:22;3.40;91.60
53645;DHT22;39547;45.554;12.068;2024-01-15T08:49:23;3.40;90.80
53645;DHT22;39547;45.554;12.068;2024-01-15T08:55:28;3.50;91.20
53645;DHT22;39547;45.554;12.068;2024-01-15T09:01:31;3.60;91.40
53645;DHT22;39547;45.554;12.068;2024-01-15T09:07:33;3.70;91.50
53645;DHT22;39547;45.554;12.068;2024-01-15T09:13:34;3.90;91.80
53645;DHT22;39547;45.554;12.068;2024-01-15T09:19:37;4.10;91.50
53645;DHT22;39547;45.554;12.068;2024-01-15T09:25:42;4.30;91.80
53645;DHT22;39547;45.554;12.068;2024-01-15T09:31:44;4.40;91.40
53645;DHT22;39547;45.554;12.068;2024-01-15T09:37:46;4.70;91.80
53645;DHT22;39547;45.554;12.068;2024-01-15T09:43:48;4.70;91.90
53645;DHT22;39547;45.554;12.068;2024-01-15T09:49:51;4.90;91.80
53645;DHT22;39547;45.554;12.068;2024-01-15T09:55:53;4.80;91.00
53645;DHT22;39547;45.554;12.068;2024-01-15T10:01:57;4.90;90.70
53645;DHT22;39547;45.554;12.068;2024-01-15T10:08:01;5.00;91.60
53645;DHT22;39547;45.554;12.068;2024-01-15T10:14:04;4.90;90.10
53645;DHT22;39547;45.554;12.068;2024-01-15T10:20:11;4.80;90.90
53645;DHT22;39547;45.554;12.068;2024-01-15T10:26:16;4.80;90.90
53645;DHT22;39547;45.554;12.068;2024-01-15T10:32:18;4.90;90.60
53645;DHT22;39547;45.554;12.068;2024-01-15T10:38:21;5.20;90.80
53645;DHT22;39547;45.554;12.068;2024-01-15T10:44:23;5.30;89.70
53645;DHT22;39547;45.554;12.068;2024-01-15T10:50:27;5.40;89.60
53645;DHT22;39547;45.554;12.068;2024-01-15T10:56:31;5.40;90.40
53645;DHT22;39547;45.554;12.068;2024-01-15T11:02:37;5.50;91.00
53645;DHT22;39547;45.554;12.068;2024-01-15T11:08:39;5.60;90.80
53645;DHT22;39547;45.554;12.068;2024-01-15T11:14:48;5.80;91.30
53645;DHT22;39547;45.554;12.068;2024-01-15T11:21:23;6.00;90.80
53645;DHT22;39547;45.554;12.068;2024-01-15T11:27:50;6.10;90.50
53645;DHT22;39547;45.554;12.068;2024-01-15T11:33:56;6.10;90.50
53645;DHT22;39547;45.554;12.068;2024-01-15T11:40:03;6.10;90.50
53645;DHT22;39547;45.554;12.068;2024-01-15T11:46:11;6.10;90.40
53645;DHT22;39547;45.554;12.068;2024-01-15T11:52:20;6.10;90.70
53645;DHT22;39547;45.554;12.068;2024-01-15T11:58:26;6.20;91.10
53645;DHT22;39547;45.554;12.068;2024-01-15T12:04:28;6.20;89.10
53645;DHT22;39547;45.554;12.068;2024-01-15T12:10:30;6.20;89.90
53645;DHT22;39547;45.554;12.068;2024-01-15T12:16:33;6.10;90.20
53645;DHT22;39547;45.554;12.068;2024-01-15T12:22:35;5.90;90.00
53645;DHT22;39547;45.554;12.068;2024-01-15T12:28:43;5.90;90.60
53645;DHT22;39547;45.554;12.068;2024-01-15T12:34:46;6.20;91.10
53645;DHT22;39547;45.554;12.068;2024-01-15T12:40:48;6.30;89.40
53645;DHT22;39547;45.554;12.068;2024-01-15T12:46:49;6.50;90.30
53645;DHT22;39547;45.554;12.068;2024-01-15T12:52:52;6.70;90.00
53645;DHT22;39547;45.554;12.068;2024-01-15T12:58:54;6.70;88.20
53645;DHT22;39547;45.554;12.068;2024-01-15T13:04:58;6.80;88.20
53645;DHT22;39547;45.554;12.068;2024-01-15T13:11:00;6.80;88.20
53645;DHT22;39547;45.554;12.068;2024-01-15T13:17:02;7.00;88.10
53645;DHT22;39547;45.554;12.068;2024-01-15T13:23:06;7.00;88.50
53645;DHT22;39547;45.554;12.068;2024-01-15T13:29:08;7.10;88.20
53645;DHT22;39547;45.554;12.068;2024-01-15T13:35:09;7.10;88.40
53645;DHT22;39547;45.554;12.068;2024-01-15T13:41:14;7.10;87.70
53645;DHT22;39547;45.554;12.068;2024-01-15T13:47:17;7.10;89.10
53645;DHT22;39547;45.554;12.068;2024-01-15T13:53:18;7.10;89.20
53645;DHT22;39547;45.554;12.068;2024-01-15T13:59:20;7.00;89.50
53645;DHT22;39547;45.554;12.068;2024-01-15T14:05:23;7.00;89.70
53645;DHT22;39547;45.554;12.068;2024-01-15T14:11:25;6.90;89.70
53645;DHT22;39547;45.554;12.068;2024-01-15T14:17:28;6.90;89.70
53645;DHT22;39547;45.554;12.068;2024-01-15T14:23:29;6.90;90.10
53645;DHT22;39547;45.554;12.068;2024-01-15T14:29:32;6.80;90.10
53645;DHT22;39547;45.554;12.068;2024-01-15T14:35:34;6.80;90.10
53645;DHT22;39547;45.554;12.068;2024-01-15T14:41:37;6.80;90.20
53645;DHT22;39547;45.554;12.068;2024-01-15T14:47:39;6.70;90.50
53645;DHT22;39547;45.554;12.068;2024-01-15T14:53:41;6.70;90.20
53645;DHT22;39547;45.554;12.068;2024-01-15T14:59:43;6.60;90.50
53645;DHT22;39547;45.554;12.068;2024-01-15T15:05:46;6.50;90.60
53645;DHT22;39547;45.554;12.068;2024-01-15T15:11:47;6.50;90.70
53645;DHT22;39547;45.554;12.068;2024-01-15T15:17:49;6.30;90.90
53645;DHT22;39547;45.554;12.068;2024-01-15T15:23:50;6.20;91.00
53645;DHT22;39547;45.554;12.068;2024-01-15T15:29:52;6.10;91.10
53645;DHT22;39547;45.554;12.068;2024-01-15T15:35:55;6.00;91.20
53645;DHT22;39547;45.554;12.068;2024-01-15T15:41:57;5.80;91.30
53645;DHT22;39547;45.554;12.068;2024-01-15T15:47:58;5.60;91.30
53645;DHT22;39547;45.554;12.068;2024-01-15T15:54:00;5.50;91.40
53645;DHT22;39547;45.554;12.068;2024-01-15T16:00:02;5.30;91.50
53645;DHT22;39547;45.554;12.068;2024-01-15T16:06:14;5.20;91.50
53645;DHT22;39547;45.554;12.068;2024-01-15T16:12:15;5.00;91.50
53645;DHT22;39547;45.554;12.068;2024-01-15T16:18:18;4.80;91.40
53645;DHT22;39547;45.554;12.068;2024-01-15T16:24:20;4.70;91.40
53645;DHT22;39547;45.554;12.068;2024-01-15T16:30:25;4.60;91.40
53645;DHT22;39547;45.554;12.068;2024-01-15T16:36:28;4.50;91.50
53645;DHT22;39547;45.554;12.068;2024-01-15T16:42:30;4.30;91.50
53645;DHT22;39547;45.554;12.068;2024-01-15T16:48:33;4.20;91.50
53645;DHT22;39547;45.554;12.068;2024-01-15T16:54:36;4.10;91.50
53645;DHT22;39547;45.554;12.068;2024-01-15T17:00:37;4.10;91.50
53645;DHT22;39547;45.554;12.068;2024-01-15T17:06:40;4.00;91.50
53645;DHT22;39547;45.554;12.068;2024-01-15T17:12:45;3.90;91.50
53645;DHT22;39547;45.554;12.068;2024-01-15T17:18:49;3.80;91.50
53645;DHT22;39547;45.554;12.068;2024-01-15T17:24:50;3.80;91.50
53645;DHT22;39547;45.554;12.068;2024-01-15T17:30:52;3.70;91.50
53645;DHT22;39547;45.554;12.068;2024-01-15T17:36:54;3.70;91.60
53645;DHT22;39547;45.554;12.068;2024-01-15T17:42:56;3.60;91.40
53645;DHT22;39547;45.554;12.068;2024-01-15T17:48:57;3.50;91.50
53645;DHT22;39547;45.554;12.068;2024-01-15T17:55:04;3.40;91.40
53645;DHT22;39547;45.554;12.068;2024-01-15T18:01:06;3.40;91.50
53645;DHT22;39547;45.554;12.068;2024-01-15T18:07:09;3.40;91.40
53645;DHT22;39547;45.554;12.068;2024-01-15T18:13:11;3.30;91.50
53645;DHT22;39547;45.554;12.068;2024-01-15T18:19:14;3.30;91.50
53645;DHT22;39547;45.554;12.068;2024-01-15T18:25:18;3.20;91.40
53645;DHT22;39547;45.554;12.068;2024-01-15T18:31:22;3.20;91.40
53645;DHT22;39547;45.554;12.068;2024-01-15T18:37:24;3.20;91.40
53645;DHT22;39547;45.554;12.068;2024-01-15T18:43:31;3.10;91.40
53645;DHT22;39547;45.554;12.068;2024-01-15T18:49:38;3.00;91.40
53645;DHT22;39547;45.554;12.068;2024-01-15T18:55:39;3.00;91.30
53645;DHT22;39547;45.554;12.068;2024-01-15T19:01:41;2.90;91.30
53645;DHT22;39547;45.554;12.068;2024-01-15T19:07:43;2.90;91.30
53645;DHT22;39547;45.554;12.068;2024-01-15T19:13:47;2.90;91.40
53645;DHT22;39547;45.554;12.068;2024-01-15T19:19:49;2.80;91.30
53645;DHT22;39547;45.554;12.068;2024-01-15T19:25:52;2.70;91.20
53645;DHT22;39547;45.554;12.068;2024-01-15T19:31:54;2.70;91.10
53645;DHT22;39547;45.554;12.068;2024-01-15T19:37:55;2.70;91.20
53645;DHT22;39547;45.554;12.068;2024-01-15T19:43:58;2.60;91.40
53645;DHT22;39547;45.554;12.068;2024-01-15T19:49:59;2.60;91.40
53645;DHT22;39547;45.554;12.068;2024-01-15T19:56:02;2.60;91.30
53645;DHT22;39547;45.554;12.068;2024-01-15T20:02:05;2.60;91.30
53645;DHT22;39547;45.554;12.068;2024-01-15T20:08:06;2.50;91.20
53645;DHT22;39547;45.554;12.068;2024-01-15T20:14:08;2.50;91.20
53645;DHT22;39547;45.554;12.068;2024-01-15T20:20:10;2.40;91.30
53645;DHT22;39547;45.554;12.068;2024-01-15T20:26:12;2.40;91.40
53645;DHT22;39547;45.554;12.068;2024-01-15T20:32:13;2.40;91.40
53645;DHT22;39547;45.554;12.068;2024-01-15T20:38:18;2.40;91.40
53645;DHT22;39547;45.554;12.068;2024-01-15T20:44:19;2.30;91.20
53645;DHT22;39547;45.554;12.068;2024-01-15T20:50:22;2.20;91.20
53645;DHT22;39547;45.554;12.068;2024-01-15T20:56:25;2.30;91.20
53645;DHT22;39547;45.554;12.068;2024-01-15T21:02:30;2.20;91.40
53645;DHT22;39547;45.554;12.068;2024-01-15T21:08:32;2.30;91.40
53645;DHT22;39547;45.554;12.068;2024-01-15T21:14:34;2.20;91.30
53645;DHT22;39547;45.554;12.068;2024-01-15T21:20:37;2.20;91.40
53645;DHT22;39547;45.554;12.068;2024-01-15T21:26:39;2.20;91.50
53645;DHT22;39547;45.554;12.068;2024-01-15T21:32:41;2.10;91.40
53645;DHT22;39547;45.554;12.068;2024-01-15T21:38:43;2.10;91.40
53645;DHT22;39547;45.554;12.068;2024-01-15T21:44:45;2.00;91.30
53645;DHT22;39547;45.554;12.068;2024-01-15T21:50:47;1.90;91.30
53645;DHT22;39547;45.554;12.068;2024-01-15T21:56:49;1.90;91.40
53645;DHT22;39547;45.554;12.068;2024-01-15T22:02:51;1.90;91.40
53645;DHT22;39547;45.554;12.068;2024-01-15T22:08:52;1.90;91.20
53645;DHT22;39547;45.554;12.068;2024-01-15T22:14:54;1.90;91.30
53645;DHT22;39547;45.554;12.068;2024-01-15T22:20:57;1.90;91.30
53645;DHT22;39547;45.554;12.068;2024-01-15T22:27:02;1.80;91.40
53645;DHT22;39547;45.554;12.068;2024-01-15T22:33:04;1.80;91.40
53645;DHT22;39547;45.554;12.068;2024-01-15T22:39:06;1.80;91.40
53645;DHT22;39547;45.554;12.068;2024-01-15T22:45:07;1.70;91.30
53645;DHT22;39547;45.554;12.068;2024-01-15T22:51:09;1.70;91.30
53645;DHT22;39547;45.554;12.068;2024-01-15T22:57:10;1.70;91.40
53645;DHT22;39547;45.554;12.068;2024-01-15T23:03:13;1.70;91.30
53645;DHT22;39547;45.554;12.068;2024-01-15T23:09:14;1.70;91.40
53645;DHT22;39547;45.554;12.068;2024-01-15T23:15:17;1.70;91.30
53645;DHT22;39547;45.554;12.068;2024-01-15T23:21:18;1.70;91.20
53645;DHT22;39547;45.554;12.068;2024-01-15T23:27:20;1.60;91.20
53645;DHT22;39547;45.554;12.068;2024-01-15T23:33:22;1.50;91.20
53645;DHT22;39547;45.554;12.068;2024-01-15T23:39:25;1.50;91.20
53645;DHT22;39547;45.554;12.068;2024-01-15T23:45:26;1.50;91.30
53645;DHT22;39547;45.554;12.068;2024-01-15T23:51:28;1.50;91.20
53645;DHT22;39547;45.554;12.068;2024-01-15T23:57:29;1.50;91.10
